createdAt,value
2022-11-05T00:02:27.165Z,13.49
2022-11-05T00:05:15.362Z,13.39
2022-11-05T00:08:12.632Z,13.83
2022-11-05T00:10:42.443Z,13.88
2022-11-05T00:13:34.144Z,13.94
2022-11-05T00:16:23.308Z,14.04
2022-11-05T00:19:07.950Z,13.31
2022-11-05T00:22:00.384Z,13.35
2022-11-05T00:24:49.671Z,13.29
2022-11-05T00:27:17.292Z,13.18
2022-11-05T00:29:45.362Z,13.69
2022-11-05T00:32:12.592Z,12.59
2022-11-05T00:34:39.738Z,14.02
2022-11-05T00:37:07.001Z,14.36
2022-11-05T00:39:39.588Z,14.04
2022-11-05T00:42:27.710Z,14.16
2022-11-05T00:45:03.952Z,13.60
2022-11-05T00:47:55.776Z,14.58
2022-11-05T00:50:25.109Z,13.80
2022-11-05T00:52:58.878Z,13.29
2022-11-05T00:55:42.255Z,13.73
2022-11-05T00:58:18.409Z,13.71
2022-11-05T01:00:55.238Z,13.65
2022-11-05T01:03:35.568Z,14.58
2022-11-05T01:06:20.423Z,14.56
2022-11-05T01:08:47.829Z,14.45
2022-11-05T01:11:36.938Z,14.76
2022-11-05T01:14:10.689Z,15.04
2022-11-05T01:16:38.815Z,13.60
2022-11-05T01:19:11.972Z,14.51
2022-11-05T01:21:40.117Z,15.02
2022-11-05T01:24:16.131Z,14.93
2022-11-05T01:26:45.174Z,14.81
2022-11-05T01:29:17.762Z,13.82
2022-11-05T01:31:45.447Z,14.29
2022-11-05T01:34:18.180Z,14.40
2022-11-05T01:36:45.619Z,12.75
2022-11-05T01:39:16.656Z,12.59
2022-11-05T01:41:48.117Z,13.20
2022-11-05T01:44:55.644Z,13.76
2022-11-05T01:47:58.019Z,13.75
2022-11-05T01:50:58.622Z,12.97
2022-11-05T01:54:04.775Z,13.25
2022-11-05T01:57:10.888Z,13.77
2022-11-05T01:59:58.786Z,13.87
2022-11-05T02:02:35.980Z,13.88
2022-11-05T02:05:10.291Z,13.73
2022-11-05T02:07:47.223Z,14.13
2022-11-05T02:10:24.233Z,13.64
2022-11-05T02:13:01.417Z,13.38
2022-11-05T02:15:56.206Z,14.49
2022-11-05T02:18:57.786Z,14.56
2022-11-05T02:22:07.894Z,14.97
2022-11-05T02:25:31.635Z,14.48
2022-11-05T02:28:43.857Z,14.91
2022-11-05T02:31:37.314Z,14.73
2022-11-05T02:34:44.971Z,14.28
2022-11-05T02:37:25.903Z,14.16
2022-11-05T02:40:41.146Z,14.16
2022-11-05T02:43:55.590Z,13.99
2022-11-05T02:46:46.981Z,14.01
2022-11-05T02:49:26.432Z,14.44
2022-11-05T02:52:25.629Z,14.47
2022-11-05T02:56:03.263Z,14.67
2022-11-05T02:58:36.741Z,14.67
2022-11-05T03:01:32.275Z,14.85
2022-11-05T03:04:34.026Z,14.74
2022-11-05T03:07:36.465Z,15.15
2022-11-05T03:10:29.199Z,15.43
2022-11-05T03:13:33.812Z,15.64
2022-11-05T03:16:51.589Z,14.69
2022-11-05T03:19:52.353Z,15.30
2022-11-05T03:22:47.193Z,15.39
2022-11-05T03:25:24.450Z,14.75
2022-11-05T03:28:00.853Z,15.09
2022-11-05T03:30:32.916Z,15.10
2022-11-05T03:33:17.428Z,14.92
2022-11-05T03:36:02.042Z,15.07
2022-11-05T03:38:51.978Z,15.48
2022-11-05T03:41:29.594Z,16.05
2022-11-05T03:44:14.102Z,15.90
2022-11-05T03:47:07.138Z,16.03
2022-11-05T03:50:07.928Z,15.08
2022-11-05T03:52:55.926Z,14.79
2022-11-05T03:55:50.338Z,15.10
2022-11-05T03:58:23.224Z,14.94
2022-11-05T04:00:54.081Z,15.01
2022-11-05T04:03:21.335Z,15.21
2022-11-05T04:06:10.396Z,15.20
2022-11-05T04:09:04.568Z,15.41
2022-11-05T04:11:53.576Z,15.41
2022-11-05T04:14:26.341Z,15.55
2022-11-05T04:17:12.508Z,15.24
2022-11-05T04:20:05.757Z,15.47
2022-11-05T04:22:59.206Z,15.66
2022-11-05T04:25:29.291Z,15.23
2022-11-05T04:28:06.432Z,15.69
2022-11-05T04:30:46.556Z,15.74
2022-11-05T04:33:24.643Z,15.86
2022-11-05T04:36:05.110Z,15.46
2022-11-05T04:38:41.479Z,15.95
2022-11-05T04:41:19.390Z,15.57
2022-11-05T04:43:49.433Z,15.08
2022-11-05T04:46:20.935Z,15.22
2022-11-05T04:48:52.106Z,14.80
2022-11-05T04:51:21.023Z,14.35
2022-11-05T04:54:03.376Z,14.71
2022-11-05T04:56:36.813Z,14.88
2022-11-05T04:59:10.828Z,15.32
2022-11-05T05:01:50.116Z,15.16
2022-11-05T05:04:31.243Z,15.26
2022-11-05T05:07:02.759Z,14.82
2022-11-05T05:09:37.694Z,14.42
2022-11-05T05:12:11.690Z,15.05
2022-11-05T05:14:42.895Z,14.75
2022-11-05T05:17:17.825Z,14.78
2022-11-05T05:20:10.014Z,14.53
2022-11-05T05:22:37.433Z,14.80
2022-11-05T05:25:11.985Z,14.83
2022-11-05T05:27:39.068Z,14.66
2022-11-05T05:30:08.183Z,14.60
2022-11-05T05:32:38.000Z,14.84
2022-11-05T05:35:14.307Z,14.57
2022-11-05T05:37:50.713Z,14.67
2022-11-05T05:40:21.845Z,14.39
2022-11-05T05:43:04.113Z,14.37
2022-11-05T05:45:33.460Z,14.76
2022-11-05T05:48:15.461Z,14.59
2022-11-05T05:50:45.906Z,14.47
2022-11-05T05:53:20.156Z,14.48
2022-11-05T05:55:53.751Z,14.66
2022-11-05T05:58:35.468Z,14.88
2022-11-05T06:01:20.470Z,14.82
2022-11-05T06:03:53.233Z,14.32
2022-11-05T06:06:24.019Z,14.59
2022-11-05T06:09:00.057Z,14.78
2022-11-05T06:11:29.709Z,15.02
2022-11-05T06:14:01.362Z,14.99
2022-11-05T06:16:28.748Z,14.46
2022-11-05T06:18:57.034Z,14.54
2022-11-05T06:21:36.390Z,14.85
2022-11-05T06:24:28.550Z,14.42
2022-11-05T06:27:01.174Z,15.07
2022-11-05T06:29:32.101Z,14.76
2022-11-05T06:32:08.225Z,14.62
2022-11-05T06:34:38.248Z,14.63
2022-11-05T06:37:07.142Z,14.73
2022-11-05T06:39:37.580Z,14.39
2022-11-05T06:42:18.938Z,14.76
2022-11-05T06:45:00.680Z,14.64
2022-11-05T06:47:43.713Z,14.72
2022-11-05T06:50:13.762Z,14.54
2022-11-05T06:52:50.990Z,14.43
2022-11-05T06:55:22.540Z,14.70
2022-11-05T06:57:58.507Z,14.45
2022-11-05T07:00:43.298Z,14.60
2022-11-05T07:03:16.328Z,14.54
2022-11-05T07:05:54.361Z,15.02
2022-11-05T07:08:24.262Z,14.99
2022-11-05T07:10:56.330Z,14.95
2022-11-05T07:13:33.525Z,14.81
2022-11-05T07:16:02.257Z,14.61
2022-11-05T07:18:31.640Z,14.76
2022-11-05T07:21:14.451Z,15.18
2022-11-05T07:23:42.538Z,14.81
2022-11-05T07:26:09.656Z,15.00
2022-11-05T07:28:40.322Z,14.95
2022-11-05T07:31:14.021Z,14.83
2022-11-05T07:33:45.651Z,14.93
2022-11-05T07:36:21.534Z,15.53
2022-11-05T07:38:56.140Z,15.61
2022-11-05T07:41:43.491Z,15.40
2022-11-05T07:44:16.404Z,15.52
2022-11-05T07:46:55.914Z,16.35
2022-11-05T07:49:29.162Z,16.47
2022-11-05T07:52:02.727Z,16.24
2022-11-05T07:54:37.154Z,15.45
2022-11-05T07:57:08.617Z,16.23
2022-11-05T07:59:37.654Z,16.56
2022-11-05T08:02:10.888Z,16.19
2022-11-05T08:04:45.578Z,16.37
2022-11-05T08:07:21.074Z,15.79
2022-11-05T08:09:57.154Z,16.11
2022-11-05T08:12:30.766Z,15.92
2022-11-05T08:15:22.867Z,15.86
2022-11-05T08:18:04.169Z,15.33
2022-11-05T08:20:39.347Z,15.59
2022-11-05T08:23:10.557Z,15.27
2022-11-05T08:25:46.006Z,14.90
2022-11-05T08:28:22.920Z,15.35
2022-11-05T08:30:58.244Z,15.56
2022-11-05T08:33:33.235Z,15.39
2022-11-05T08:36:11.896Z,15.86
2022-11-05T08:38:50.757Z,15.79
2022-11-05T08:41:21.028Z,15.60
2022-11-05T08:43:50.763Z,15.56
2022-11-05T08:46:19.027Z,16.22
2022-11-05T08:48:51.306Z,15.77
2022-11-05T08:51:22.246Z,15.78
2022-11-05T08:54:03.872Z,15.96
2022-11-05T08:56:36.486Z,15.96
2022-11-05T08:59:11.659Z,16.75
2022-11-05T09:01:47.613Z,16.85
2022-11-05T09:04:20.040Z,16.82
2022-11-05T09:06:48.518Z,17.05
2022-11-05T09:09:22.121Z,17.05
2022-11-05T09:12:12.163Z,17.54
2022-11-05T09:14:44.983Z,17.46
2022-11-05T09:17:26.353Z,18.07
2022-11-05T09:20:25.993Z,17.65
2022-11-05T09:23:04.151Z,17.59
2022-11-05T09:25:43.949Z,17.87
2022-11-05T09:28:26.164Z,17.63
2022-11-05T09:30:55.791Z,18.02
2022-11-05T09:33:30.024Z,17.79
2022-11-05T09:36:01.188Z,17.80
2022-11-05T09:38:37.851Z,18.01
2022-11-05T09:41:38.194Z,18.17
2022-11-05T09:44:39.930Z,18.30
2022-11-05T09:47:44.579Z,17.56
2022-11-05T09:50:42.696Z,17.68
2022-11-05T09:53:31.845Z,18.50
2022-11-05T09:56:02.485Z,17.66
2022-11-05T09:59:24.929Z,17.62
2022-11-05T10:02:20.145Z,18.15
2022-11-05T10:05:10.179Z,17.91
2022-11-05T10:08:01.795Z,18.35
2022-11-05T10:10:50.790Z,18.24
2022-11-05T10:13:43.296Z,18.53
2022-11-05T10:16:34.591Z,18.50
2022-11-05T10:19:38.119Z,18.35
2022-11-05T10:22:35.525Z,18.67
2022-11-05T10:25:25.189Z,18.88
2022-11-05T10:27:56.056Z,19.08
2022-11-05T10:30:28.722Z,18.73
2022-11-05T10:33:15.778Z,19.10
2022-11-05T10:35:55.758Z,19.22
2022-11-05T10:38:29.660Z,18.75
2022-11-05T10:42:01.945Z,18.61
2022-11-05T10:45:20.925Z,19.13
2022-11-05T10:48:43.831Z,18.96
2022-11-05T10:51:22.976Z,19.44
2022-11-05T10:54:08.829Z,18.67
2022-11-05T10:56:44.014Z,19.03
2022-11-05T10:59:34.654Z,19.08
2022-11-05T11:02:30.495Z,18.16
2022-11-05T11:04:59.868Z,18.42
2022-11-05T11:07:36.222Z,18.40
2022-11-05T11:10:06.328Z,18.63
2022-11-05T11:12:54.923Z,18.72
2022-11-05T11:15:35.513Z,19.27
2022-11-05T11:18:42.285Z,19.96
2022-11-05T11:21:30.668Z,20.52
2022-11-05T11:24:27.566Z,22.59
2022-11-05T11:27:15.967Z,24.35
2022-11-05T11:30:03.804Z,23.38
2022-11-05T11:32:45.423Z,23.92
2022-11-05T11:35:32.396Z,22.73
2022-11-05T11:38:09.391Z,21.79
2022-11-05T11:40:48.624Z,22.66
2022-11-05T11:43:39.258Z,23.31
2022-11-05T11:46:25.066Z,22.24
2022-11-05T11:48:58.689Z,20.74
2022-11-05T11:51:49.802Z,21.54
2022-11-05T11:54:32.192Z,22.49
2022-11-05T11:57:04.351Z,24.31
2022-11-05T12:03:02.154Z,23.76
2022-11-05T12:06:10.485Z,24.60
2022-11-05T12:09:02.047Z,24.71
2022-11-05T12:12:09.675Z,23.77
2022-11-05T12:15:06.022Z,23.87
2022-11-05T12:18:08.039Z,23.98
2022-11-05T12:21:11.408Z,24.14
2022-11-05T12:24:07.611Z,24.89
2022-11-05T12:27:13.395Z,23.32
2022-11-05T12:29:59.016Z,25.76
2022-11-05T12:32:50.242Z,25.01
2022-11-05T12:36:13.830Z,26.21
2022-11-05T12:39:14.710Z,24.99
2022-11-05T12:42:31.876Z,24.70
2022-11-05T12:45:37.219Z,24.07
2022-11-05T12:48:49.499Z,25.30
2022-11-05T12:51:32.844Z,24.57
2022-11-05T12:54:54.518Z,23.26
2022-11-05T12:57:26.615Z,23.66
2022-11-05T13:00:27.178Z,24.92
2022-11-05T13:03:46.961Z,25.31
2022-11-05T13:06:43.183Z,23.42
2022-11-05T13:09:58.124Z,24.66
2022-11-05T13:12:34.746Z,25.29
2022-11-05T13:16:11.902Z,25.16
2022-11-05T13:18:45.729Z,24.28
2022-11-05T13:21:20.390Z,24.19
2022-11-05T13:24:12.668Z,25.05
2022-11-05T13:26:57.865Z,25.04
2022-11-05T13:29:52.046Z,22.97
2022-11-05T13:32:35.589Z,23.86
2022-11-05T13:35:20.147Z,22.61
2022-11-05T13:38:28.005Z,23.76
2022-11-05T13:41:19.511Z,22.38
2022-11-05T13:44:26.683Z,22.99
2022-11-05T13:47:36.774Z,22.97
2022-11-05T13:50:33.141Z,22.38
2022-11-05T13:53:23.790Z,22.16
2022-11-05T13:56:23.600Z,22.43
2022-11-05T13:59:35.270Z,22.06
2022-11-05T14:02:54.585Z,20.76
2022-11-05T14:05:53.661Z,20.91
2022-11-05T14:08:30.343Z,20.66
2022-11-05T14:11:38.345Z,20.80
2022-11-05T14:14:58.504Z,19.67
2022-11-05T14:18:10.438Z,20.51
2022-11-05T14:21:32.264Z,20.29
2022-11-05T14:24:23.730Z,20.64
2022-11-05T14:27:10.860Z,20.64
2022-11-05T14:29:50.109Z,20.83
2022-11-05T14:32:54.037Z,20.36
2022-11-05T14:35:44.674Z,20.27
2022-11-05T14:38:40.992Z,21.02
2022-11-05T14:41:12.342Z,20.37
2022-11-05T14:43:56.744Z,18.18
2022-11-05T14:46:41.513Z,18.43
2022-11-05T14:49:34.819Z,18.40
2022-11-05T14:52:20.198Z,18.50
2022-11-05T14:55:02.063Z,18.08
2022-11-05T14:57:58.087Z,18.83
2022-11-05T15:00:33.205Z,18.74
2022-11-05T15:03:47.170Z,17.81
2022-11-05T15:06:26.467Z,17.97
2022-11-05T15:09:34.059Z,17.49
2022-11-05T15:12:37.647Z,18.87
2022-11-05T15:15:23.549Z,17.42
2022-11-05T15:18:06.876Z,17.87
2022-11-05T15:20:53.733Z,17.61
2022-11-05T15:23:32.898Z,16.85
2022-11-05T15:27:00.738Z,16.61
2022-11-05T15:29:34.253Z,16.79
2022-11-05T15:32:06.449Z,16.18
2022-11-05T15:34:37.990Z,16.17
2022-11-05T15:37:27.746Z,16.43
2022-11-05T15:40:01.531Z,16.45
2022-11-05T15:42:34.878Z,16.79
2022-11-05T15:45:36.758Z,16.88
2022-11-05T15:48:23.941Z,16.24
2022-11-05T15:51:02.454Z,16.21
2022-11-05T15:53:56.027Z,16.42
2022-11-05T15:56:54.307Z,16.05
2022-11-05T15:59:30.562Z,15.45
2022-11-05T16:02:29.025Z,15.31
2022-11-05T16:05:07.670Z,15.51
2022-11-05T16:07:37.736Z,15.15
2022-11-05T16:10:25.022Z,15.53
2022-11-05T16:12:58.876Z,15.27
2022-11-05T16:15:33.828Z,15.06
2022-11-05T16:18:01.227Z,15.13
2022-11-05T16:20:38.200Z,14.90
2022-11-05T16:23:23.419Z,14.99
2022-11-05T16:25:55.182Z,14.72
2022-11-05T16:28:33.067Z,14.83
2022-11-05T16:31:04.440Z,14.91
2022-11-05T16:33:46.854Z,14.49
2022-11-05T16:36:17.339Z,14.91
2022-11-05T16:38:47.492Z,14.75
2022-11-05T16:41:20.706Z,14.58
2022-11-05T16:44:01.173Z,14.65
2022-11-05T16:46:33.046Z,14.28
2022-11-05T16:49:03.311Z,14.61
2022-11-05T16:51:31.670Z,14.79
2022-11-05T16:53:59.031Z,14.71
2022-11-05T16:59:13.830Z,14.40
2022-11-05T17:01:47.468Z,14.27
2022-11-05T17:04:18.808Z,14.67
2022-11-05T17:06:54.010Z,14.30
2022-11-05T17:09:21.548Z,14.53
2022-11-05T17:11:49.881Z,14.12
2022-11-05T17:14:24.398Z,14.33
2022-11-05T17:16:55.948Z,14.46
2022-11-05T17:19:24.962Z,14.40
2022-11-05T17:22:06.356Z,14.40
2022-11-05T17:24:40.650Z,14.35
2022-11-05T17:27:11.477Z,14.13
2022-11-05T17:29:43.947Z,14.37
2022-11-05T17:32:19.621Z,14.01
2022-11-05T17:34:52.843Z,14.00
2022-11-05T17:37:24.164Z,14.26
2022-11-05T17:40:02.058Z,14.22
2022-11-05T17:42:33.925Z,14.31
2022-11-05T17:45:04.126Z,14.17
2022-11-05T17:47:41.850Z,14.19
2022-11-05T17:50:18.848Z,14.14
2022-11-05T17:52:54.740Z,14.07
2022-11-05T17:55:26.581Z,13.96
2022-11-05T17:57:58.966Z,14.18
2022-11-05T18:00:38.013Z,14.12
2022-11-05T18:03:11.012Z,13.95
2022-11-05T18:05:43.045Z,14.06
2022-11-05T18:08:28.460Z,13.95
2022-11-05T18:11:07.382Z,14.22
2022-11-05T18:13:38.484Z,14.00
2022-11-05T18:16:12.257Z,13.73
2022-11-05T18:18:42.357Z,13.86
2022-11-05T18:21:12.056Z,13.80
2022-11-05T18:23:49.062Z,13.27
2022-11-05T18:26:17.789Z,13.78
2022-11-05T18:28:50.592Z,13.74
2022-11-05T18:31:25.679Z,13.68
2022-11-05T18:34:04.636Z,13.76
2022-11-05T18:36:37.506Z,13.74
2022-11-05T18:39:10.331Z,13.74
2022-11-05T18:41:51.814Z,13.60
2022-11-05T18:44:28.318Z,13.20
2022-11-05T18:47:11.542Z,13.80
2022-11-05T18:49:41.558Z,13.99
2022-11-05T18:52:16.093Z,13.73
2022-11-05T18:54:45.266Z,13.80
2022-11-05T18:57:18.076Z,13.67
2022-11-05T18:59:52.022Z,13.60
2022-11-05T19:02:22.707Z,13.80
2022-11-05T19:05:14.483Z,13.50
2022-11-05T19:07:40.557Z,13.58
2022-11-05T19:10:09.136Z,13.52
2022-11-05T19:12:43.964Z,13.83
2022-11-05T19:15:20.375Z,13.85
2022-11-05T19:17:52.898Z,13.50
2022-11-05T19:20:21.425Z,13.55
2022-11-05T19:22:50.576Z,13.94
2022-11-05T19:25:22.353Z,13.68
2022-11-05T19:27:51.619Z,13.75
2022-11-05T19:30:20.445Z,13.76
2022-11-05T19:32:50.435Z,13.51
2022-11-05T19:35:17.968Z,13.43
2022-11-05T19:37:47.372Z,13.58
2022-11-05T19:40:14.524Z,13.56
2022-11-05T19:42:43.202Z,13.75
2022-11-05T19:45:38.237Z,13.75
2022-11-05T19:48:01.278Z,13.86
2022-11-05T19:50:32.022Z,13.54
2022-11-05T19:53:06.103Z,13.25
2022-11-05T19:55:38.916Z,13.57
2022-11-05T19:58:06.361Z,13.82
2022-11-05T20:00:35.151Z,13.80
2022-11-05T20:03:11.633Z,13.63
2022-11-05T20:05:42.044Z,13.68
2022-11-05T20:08:14.177Z,13.87
2022-11-05T20:10:41.968Z,13.57
2022-11-05T20:13:15.516Z,13.68
2022-11-05T20:15:47.149Z,13.97
2022-11-05T20:18:18.981Z,13.98
2022-11-05T20:20:48.976Z,13.49
2022-11-05T20:23:17.398Z,13.62
2022-11-05T20:25:44.649Z,14.03
2022-11-05T20:28:12.621Z,13.80
2022-11-05T20:30:40.321Z,13.93
2022-11-05T20:33:11.243Z,13.50
2022-11-05T20:35:40.732Z,13.69
2022-11-05T20:38:08.095Z,13.81
2022-11-05T20:40:35.475Z,13.77
2022-11-05T20:43:02.717Z,13.81
2022-11-05T20:45:33.242Z,14.18
2022-11-05T20:48:01.062Z,13.62
2022-11-05T20:50:32.892Z,13.79
2022-11-05T20:53:00.267Z,13.46
2022-11-05T20:55:28.541Z,13.84
2022-11-05T20:57:56.590Z,13.66
2022-11-05T21:00:26.184Z,13.98
2022-11-05T21:02:54.773Z,13.80
2022-11-05T21:05:32.697Z,13.97
2022-11-05T21:08:06.183Z,14.01
2022-11-05T21:10:33.382Z,13.71
2022-11-05T21:13:03.571Z,13.98
2022-11-05T21:15:31.866Z,14.19
2022-11-05T21:18:00.317Z,13.89
2022-11-05T21:20:31.917Z,13.95
2022-11-05T21:23:03.388Z,14.00
2022-11-05T21:25:34.107Z,13.59
2022-11-05T21:28:03.802Z,13.91
2022-11-05T21:30:31.236Z,13.77
2022-11-05T21:32:59.224Z,13.85
2022-11-05T21:35:28.247Z,14.13
2022-11-05T21:38:02.842Z,13.48
2022-11-05T21:40:33.275Z,13.55
2022-11-05T21:43:01.358Z,13.64
2022-11-05T21:45:32.713Z,13.70
2022-11-05T21:48:06.954Z,13.76
2022-11-05T21:50:53.463Z,13.75
2022-11-05T21:53:40.963Z,13.58
2022-11-05T21:56:43.288Z,13.83
2022-11-05T21:59:36.611Z,14.08
2022-11-05T22:02:04.704Z,13.55
2022-11-05T22:04:37.902Z,13.40
2022-11-05T22:07:07.800Z,13.82
2022-11-05T22:09:38.984Z,14.25
2022-11-05T22:12:07.292Z,14.04
2022-11-05T22:14:35.322Z,13.71
2022-11-05T22:17:04.526Z,13.60
2022-11-05T22:19:33.848Z,13.80
2022-11-05T22:22:02.360Z,14.07
2022-11-05T22:24:32.002Z,13.34
2022-11-05T22:27:06.978Z,13.67
2022-11-05T22:29:39.961Z,13.95
2022-11-05T22:32:08.827Z,13.73
2022-11-05T22:34:38.576Z,13.85
2022-11-05T22:37:11.582Z,13.54
2022-11-05T22:39:38.920Z,13.65
2022-11-05T22:42:09.239Z,13.29
2022-11-05T22:44:43.801Z,12.83
2022-11-05T22:47:13.129Z,13.14
2022-11-05T22:49:43.078Z,12.79
2022-11-05T22:52:12.393Z,13.27
2022-11-05T22:54:42.634Z,12.81
2022-11-05T22:57:11.955Z,12.51
2022-11-05T22:59:39.321Z,12.56
2022-11-05T23:02:09.881Z,12.86
2022-11-05T23:04:43.114Z,12.86
2022-11-05T23:07:29.699Z,13.07
2022-11-05T23:10:29.403Z,12.69
2022-11-05T23:12:56.600Z,12.91
2022-11-05T23:15:42.828Z,12.49
2022-11-05T23:18:29.250Z,13.16
2022-11-05T23:21:22.712Z,12.81
2022-11-05T23:24:05.909Z,12.65
2022-11-05T23:26:53.022Z,12.82
2022-11-05T23:29:26.838Z,12.51
2022-11-05T23:32:13.032Z,12.85
2022-11-05T23:34:40.418Z,12.82
2022-11-05T23:37:26.727Z,12.74
2022-11-05T23:39:55.386Z,13.11
2022-11-05T23:42:44.592Z,12.48
2022-11-05T23:45:31.685Z,12.70
2022-11-05T23:48:25.337Z,12.35
2022-11-05T23:51:02.072Z,12.49
2022-11-05T23:53:33.873Z,12.45
2022-11-05T23:56:06.097Z,12.92
2022-11-05T23:58:33.317Z,12.91
